Haileybury, Canada
Current Conditions -  °F | °C
As of 7:00 AM on Saturday 01 Nov 2014 (Local Time) from CYXR Reporting Station
Overcast Overcast  
Wind Chill: 15°   Ceiling: 2000
Heat Index: 25°   Visibility: 9mi
Dew Point: 21°   Wind: 10mph
Humidity: 86%   Direction: 330°NNW
Pressure: 30.35"   Gusts: NA
Location:  47.45°N, 79.64°W
Report Text: CYXR 011100Z AUTO 33009KT 9SM OVC020 M04/M06 A3035 RMK ICG INTMT SLP292
Loading
Personal Weather Stations






























Interactive Weather Map
Tropical Storm Tracking
New forecast layout! Learn more

10-Day Weather Forecast

Advertisements
Track Severe Weather on mobile